sensor_id;sensor_type;location;lat;lon;timestamp;P1;durP1;ratioP1;P2;durP2;ratioP2
12441;SDS011;6285;48.804;9.220;2022-10-30T00:00:26;25.08;;;11.02;;
12441;SDS011;6285;48.804;9.220;2022-10-30T00:02:54;17.30;;;10.88;;
12441;SDS011;6285;48.804;9.220;2022-10-30T00:05:21;19.92;;;12.00;;
12441;SDS011;6285;48.804;9.220;2022-10-30T00:07:48;17.45;;;11.10;;
12441;SDS011;6285;48.804;9.220;2022-10-30T00:10:16;22.92;;;11.55;;
12441;SDS011;6285;48.804;9.220;2022-10-30T00:12:43;19.58;;;10.75;;
12441;SDS011;6285;48.804;9.220;2022-10-30T00:15:10;16.83;;;11.20;;
12441;SDS011;6285;48.804;9.220;2022-10-30T00:17:39;19.30;;;11.43;;
12441;SDS011;6285;48.804;9.220;2022-10-30T00:20:07;20.42;;;10.73;;
12441;SDS011;6285;48.804;9.220;2022-10-30T00:22:34;16.83;;;11.02;;
12441;SDS011;6285;48.804;9.220;2022-10-30T00:25:02;16.52;;;11.23;;
12441;SDS011;6285;48.804;9.220;2022-10-30T00:27:29;23.48;;;12.05;;
12441;SDS011;6285;48.804;9.220;2022-10-30T00:29:56;19.98;;;11.60;;
12441;SDS011;6285;48.804;9.220;2022-10-30T00:32:23;15.93;;;10.90;;
12441;SDS011;6285;48.804;9.220;2022-10-30T00:34:52;22.10;;;11.43;;
12441;SDS011;6285;48.804;9.220;2022-10-30T00:37:19;19.75;;;11.02;;
12441;SDS011;6285;48.804;9.220;2022-10-30T00:39:46;19.33;;;10.90;;
12441;SDS011;6285;48.804;9.220;2022-10-30T00:42:14;18.45;;;10.40;;
12441;SDS011;6285;48.804;9.220;2022-10-30T00:44:44;16.75;;;9.73;;
12441;SDS011;6285;48.804;9.220;2022-10-30T00:47:12;16.42;;;11.30;;
12441;SDS011;6285;48.804;9.220;2022-10-30T00:49:44;22.25;;;10.73;;
12441;SDS011;6285;48.804;9.220;2022-10-30T00:52:15;15.52;;;11.20;;
12441;SDS011;6285;48.804;9.220;2022-10-30T00:54:43;14.40;;;10.23;;
12441;SDS011;6285;48.804;9.220;2022-10-30T00:57:10;20.27;;;10.50;;
12441;SDS011;6285;48.804;9.220;2022-10-30T00:59:37;16.02;;;10.05;;
12441;SDS011;6285;48.804;9.220;2022-10-30T01:02:04;18.67;;;10.77;;
12441;SDS011;6285;48.804;9.220;2022-10-30T01:04:33;20.63;;;10.38;;
12441;SDS011;6285;48.804;9.220;2022-10-30T01:07:04;21.98;;;10.35;;
12441;SDS011;6285;48.804;9.220;2022-10-30T01:09:34;19.70;;;10.45;;
12441;SDS011;6285;48.804;9.220;2022-10-30T01:12:01;17.02;;;9.82;;
12441;SDS011;6285;48.804;9.220;2022-10-30T01:14:29;20.00;;;10.48;;
12441;SDS011;6285;48.804;9.220;2022-10-30T01:16:58;21.40;;;10.18;;
12441;SDS011;6285;48.804;9.220;2022-10-30T01:19:32;16.13;;;9.85;;
12441;SDS011;6285;48.804;9.220;2022-10-30T01:22:05;16.58;;;10.43;;
12441;SDS011;6285;48.804;9.220;2022-10-30T01:24:44;19.77;;;9.70;;
12441;SDS011;6285;48.804;9.220;2022-10-30T01:27:15;17.50;;;11.10;;
12441;SDS011;6285;48.804;9.220;2022-10-30T01:29:54;20.90;;;10.65;;
12441;SDS011;6285;48.804;9.220;2022-10-30T01:32:26;17.08;;;10.10;;
12441;SDS011;6285;48.804;9.220;2022-10-30T01:34:58;16.67;;;10.02;;
12441;SDS011;6285;48.804;9.220;2022-10-30T01:37:30;17.27;;;10.27;;
12441;SDS011;6285;48.804;9.220;2022-10-30T01:40:04;16.77;;;9.50;;
12441;SDS011;6285;48.804;9.220;2022-10-30T01:42:44;17.13;;;9.68;;
12441;SDS011;6285;48.804;9.220;2022-10-30T01:45:15;15.98;;;8.90;;
12441;SDS011;6285;48.804;9.220;2022-10-30T01:47:45;16.50;;;10.18;;
12441;SDS011;6285;48.804;9.220;2022-10-30T01:50:24;15.38;;;10.23;;
12441;SDS011;6285;48.804;9.220;2022-10-30T01:52:54;19.52;;;9.43;;
12441;SDS011;6285;48.804;9.220;2022-10-30T01:55:28;18.83;;;9.65;;
12441;SDS011;6285;48.804;9.220;2022-10-30T01:57:58;16.98;;;9.80;;
12441;SDS011;6285;48.804;9.220;2022-10-30T02:00:28;16.80;;;9.35;;
12441;SDS011;6285;48.804;9.220;2022-10-30T02:02:55;17.10;;;8.93;;
12441;SDS011;6285;48.804;9.220;2022-10-30T02:05:24;14.40;;;9.68;;
12441;SDS011;6285;48.804;9.220;2022-10-30T02:07:53;18.52;;;9.82;;
12441;SDS011;6285;48.804;9.220;2022-10-30T02:10:20;15.88;;;8.88;;
12441;SDS011;6285;48.804;9.220;2022-10-30T02:12:49;21.52;;;10.10;;
12441;SDS011;6285;48.804;9.220;2022-10-30T02:15:16;15.80;;;9.73;;
12441;SDS011;6285;48.804;9.220;2022-10-30T02:17:43;17.05;;;9.43;;
12441;SDS011;6285;48.804;9.220;2022-10-30T02:20:15;16.13;;;8.95;;
12441;SDS011;6285;48.804;9.220;2022-10-30T02:22:43;15.18;;;8.93;;
12441;SDS011;6285;48.804;9.220;2022-10-30T02:25:11;13.55;;;9.35;;
12441;SDS011;6285;48.804;9.220;2022-10-30T02:27:38;18.10;;;8.88;;
12441;SDS011;6285;48.804;9.220;2022-10-30T02:30:05;17.95;;;8.63;;
12441;SDS011;6285;48.804;9.220;2022-10-30T02:32:33;22.83;;;9.60;;
12441;SDS011;6285;48.804;9.220;2022-10-30T02:35:00;15.25;;;9.43;;
12441;SDS011;6285;48.804;9.220;2022-10-30T02:37:29;15.63;;;9.07;;
12441;SDS011;6285;48.804;9.220;2022-10-30T02:39:59;16.95;;;8.82;;
12441;SDS011;6285;48.804;9.220;2022-10-30T02:42:26;16.55;;;8.77;;
12441;SDS011;6285;48.804;9.220;2022-10-30T02:44:53;15.38;;;7.85;;
12441;SDS011;6285;48.804;9.220;2022-10-30T02:47:21;16.48;;;8.18;;
12441;SDS011;6285;48.804;9.220;2022-10-30T02:49:48;13.93;;;7.88;;
12441;SDS011;6285;48.804;9.220;2022-10-30T02:52:15;18.00;;;8.38;;
12441;SDS011;6285;48.804;9.220;2022-10-30T02:54:43;12.18;;;7.32;;
12441;SDS011;6285;48.804;9.220;2022-10-30T02:57:10;16.67;;;7.78;;
12441;SDS011;6285;48.804;9.220;2022-10-30T02:59:37;15.20;;;7.88;;
12441;SDS011;6285;48.804;9.220;2022-10-30T03:02:04;17.15;;;7.82;;
12441;SDS011;6285;48.804;9.220;2022-10-30T03:04:31;12.32;;;7.60;;
12441;SDS011;6285;48.804;9.220;2022-10-30T03:06:58;16.60;;;7.30;;
12441;SDS011;6285;48.804;9.220;2022-10-30T03:09:25;14.35;;;7.90;;
12441;SDS011;6285;48.804;9.220;2022-10-30T03:11:54;12.40;;;7.18;;
12441;SDS011;6285;48.804;9.220;2022-10-30T03:14:21;16.60;;;7.40;;
12441;SDS011;6285;48.804;9.220;2022-10-30T03:16:48;14.63;;;7.57;;
12441;SDS011;6285;48.804;9.220;2022-10-30T03:19:16;14.35;;;6.78;;
12441;SDS011;6285;48.804;9.220;2022-10-30T03:21:43;18.52;;;8.23;;
12441;SDS011;6285;48.804;9.220;2022-10-30T03:24:10;17.45;;;7.53;;
12441;SDS011;6285;48.804;9.220;2022-10-30T03:26:37;11.38;;;6.72;;
12441;SDS011;6285;48.804;9.220;2022-10-30T03:29:06;13.85;;;7.13;;
12441;SDS011;6285;48.804;9.220;2022-10-30T03:31:33;16.90;;;7.18;;
12441;SDS011;6285;48.804;9.220;2022-10-30T03:34:00;17.40;;;7.25;;
12441;SDS011;6285;48.804;9.220;2022-10-30T03:36:27;14.63;;;7.43;;
12441;SDS011;6285;48.804;9.220;2022-10-30T03:38:54;16.27;;;7.18;;
12441;SDS011;6285;48.804;9.220;2022-10-30T03:41:21;17.65;;;7.60;;
12441;SDS011;6285;48.804;9.220;2022-10-30T03:43:48;13.60;;;7.20;;
12441;SDS011;6285;48.804;9.220;2022-10-30T03:46:17;17.23;;;7.15;;
12441;SDS011;6285;48.804;9.220;2022-10-30T03:48:47;12.32;;;7.75;;
12441;SDS011;6285;48.804;9.220;2022-10-30T03:51:14;12.82;;;7.43;;
12441;SDS011;6285;48.804;9.220;2022-10-30T03:53:41;15.63;;;7.75;;
12441;SDS011;6285;48.804;9.220;2022-10-30T03:56:08;16.95;;;7.40;;
12441;SDS011;6285;48.804;9.220;2022-10-30T03:58:36;14.80;;;7.55;;
12441;SDS011;6285;48.804;9.220;2022-10-30T04:01:03;15.55;;;7.13;;
12441;SDS011;6285;48.804;9.220;2022-10-30T04:03:32;12.32;;;7.50;;
12441;SDS011;6285;48.804;9.220;2022-10-30T04:06:00;20.52;;;7.45;;
12441;SDS011;6285;48.804;9.220;2022-10-30T04:08:27;17.02;;;7.55;;
12441;SDS011;6285;48.804;9.220;2022-10-30T04:10:54;15.52;;;7.68;;
12441;SDS011;6285;48.804;9.220;2022-10-30T04:13:21;15.23;;;7.47;;
12441;SDS011;6285;48.804;9.220;2022-10-30T04:15:48;16.92;;;7.30;;
12441;SDS011;6285;48.804;9.220;2022-10-30T04:18:16;16.65;;;7.40;;
12441;SDS011;6285;48.804;9.220;2022-10-30T04:20:44;14.43;;;7.00;;
12441;SDS011;6285;48.804;9.220;2022-10-30T04:23:13;18.98;;;6.95;;
12441;SDS011;6285;48.804;9.220;2022-10-30T04:25:40;14.63;;;6.78;;
12441;SDS011;6285;48.804;9.220;2022-10-30T04:28:07;13.80;;;7.43;;
12441;SDS011;6285;48.804;9.220;2022-10-30T04:30:34;13.80;;;6.78;;
12441;SDS011;6285;48.804;9.220;2022-10-30T04:33:03;14.63;;;6.80;;
12441;SDS011;6285;48.804;9.220;2022-10-30T04:35:31;13.05;;;6.82;;
12441;SDS011;6285;48.804;9.220;2022-10-30T04:38:00;11.02;;;7.50;;
12441;SDS011;6285;48.804;9.220;2022-10-30T04:40:28;16.80;;;6.70;;
12441;SDS011;6285;48.804;9.220;2022-10-30T04:42:55;15.13;;;6.45;;
12441;SDS011;6285;48.804;9.220;2022-10-30T04:45:23;17.27;;;7.00;;
12441;SDS011;6285;48.804;9.220;2022-10-30T04:47:50;13.98;;;6.53;;
12441;SDS011;6285;48.804;9.220;2022-10-30T04:50:17;15.23;;;6.55;;
12441;SDS011;6285;48.804;9.220;2022-10-30T04:52:44;13.07;;;6.53;;
12441;SDS011;6285;48.804;9.220;2022-10-30T04:55:13;14.40;;;6.28;;
12441;SDS011;6285;48.804;9.220;2022-10-30T04:57:40;15.70;;;6.95;;
12441;SDS011;6285;48.804;9.220;2022-10-30T05:00:07;15.57;;;6.68;;
12441;SDS011;6285;48.804;9.220;2022-10-30T05:02:34;12.10;;;6.45;;
12441;SDS011;6285;48.804;9.220;2022-10-30T05:05:02;15.25;;;6.55;;
12441;SDS011;6285;48.804;9.220;2022-10-30T05:07:29;9.98;;;5.70;;
12441;SDS011;6285;48.804;9.220;2022-10-30T05:09:56;16.73;;;7.05;;
12441;SDS011;6285;48.804;9.220;2022-10-30T05:12:25;13.15;;;6.63;;
12441;SDS011;6285;48.804;9.220;2022-10-30T05:14:52;11.45;;;5.75;;
12441;SDS011;6285;48.804;9.220;2022-10-30T05:17:19;18.25;;;6.72;;
12441;SDS011;6285;48.804;9.220;2022-10-30T05:19:46;11.88;;;5.90;;
12441;SDS011;6285;48.804;9.220;2022-10-30T05:22:13;12.63;;;6.57;;
12441;SDS011;6285;48.804;9.220;2022-10-30T05:24:40;14.63;;;6.60;;
12441;SDS011;6285;48.804;9.220;2022-10-30T05:27:07;16.27;;;6.25;;
12441;SDS011;6285;48.804;9.220;2022-10-30T05:29:36;12.82;;;6.93;;
12441;SDS011;6285;48.804;9.220;2022-10-30T05:32:03;8.75;;;6.03;;
12441;SDS011;6285;48.804;9.220;2022-10-30T05:34:30;13.50;;;6.50;;
12441;SDS011;6285;48.804;9.220;2022-10-30T05:36:57;13.43;;;6.55;;
12441;SDS011;6285;48.804;9.220;2022-10-30T05:39:25;12.82;;;6.75;;
12441;SDS011;6285;48.804;9.220;2022-10-30T05:41:52;14.32;;;6.40;;
12441;SDS011;6285;48.804;9.220;2022-10-30T05:44:19;12.50;;;6.65;;
12441;SDS011;6285;48.804;9.220;2022-10-30T05:46:48;13.85;;;6.28;;
12441;SDS011;6285;48.804;9.220;2022-10-30T05:49:15;17.15;;;6.88;;
12441;SDS011;6285;48.804;9.220;2022-10-30T05:51:42;13.57;;;6.47;;
12441;SDS011;6285;48.804;9.220;2022-10-30T05:54:09;18.50;;;6.72;;
12441;SDS011;6285;48.804;9.220;2022-10-30T05:56:36;15.40;;;6.43;;
12441;SDS011;6285;48.804;9.220;2022-10-30T05:59:03;15.27;;;6.45;;
12441;SDS011;6285;48.804;9.220;2022-10-30T06:01:30;15.00;;;6.63;;
12441;SDS011;6285;48.804;9.220;2022-10-30T06:03:59;14.30;;;6.45;;
12441;SDS011;6285;48.804;9.220;2022-10-30T06:06:26;12.20;;;6.68;;
12441;SDS011;6285;48.804;9.220;2022-10-30T06:08:53;11.77;;;6.05;;
12441;SDS011;6285;48.804;9.220;2022-10-30T06:11:20;12.00;;;6.38;;
12441;SDS011;6285;48.804;9.220;2022-10-30T06:13:47;10.45;;;6.40;;
12441;SDS011;6285;48.804;9.220;2022-10-30T06:16:14;14.48;;;6.70;;
12441;SDS011;6285;48.804;9.220;2022-10-30T06:18:41;13.35;;;6.90;;
12441;SDS011;6285;48.804;9.220;2022-10-30T06:21:10;13.65;;;6.03;;
12441;SDS011;6285;48.804;9.220;2022-10-30T06:23:37;14.07;;;6.60;;
12441;SDS011;6285;48.804;9.220;2022-10-30T06:26:04;13.77;;;6.53;;
12441;SDS011;6285;48.804;9.220;2022-10-30T06:28:31;13.38;;;6.22;;
12441;SDS011;6285;48.804;9.220;2022-10-30T06:30:58;12.65;;;6.30;;
12441;SDS011;6285;48.804;9.220;2022-10-30T06:33:25;14.07;;;6.15;;
12441;SDS011;6285;48.804;9.220;2022-10-30T06:35:52;13.38;;;5.90;;
12441;SDS011;6285;48.804;9.220;2022-10-30T06:38:21;12.23;;;6.50;;
12441;SDS011;6285;48.804;9.220;2022-10-30T06:40:48;15.63;;;6.47;;
12441;SDS011;6285;48.804;9.220;2022-10-30T06:43:15;12.82;;;6.28;;
12441;SDS011;6285;48.804;9.220;2022-10-30T06:45:42;13.00;;;6.20;;
12441;SDS011;6285;48.804;9.220;2022-10-30T06:48:09;15.60;;;6.47;;
12441;SDS011;6285;48.804;9.220;2022-10-30T06:50:36;14.93;;;6.13;;
12441;SDS011;6285;48.804;9.220;2022-10-30T06:53:03;14.40;;;6.35;;
12441;SDS011;6285;48.804;9.220;2022-10-30T06:55:32;12.52;;;6.30;;
12441;SDS011;6285;48.804;9.220;2022-10-30T06:57:59;14.20;;;6.13;;
12441;SDS011;6285;48.804;9.220;2022-10-30T07:00:26;17.55;;;6.57;;
12441;SDS011;6285;48.804;9.220;2022-10-30T07:02:54;11.13;;;6.68;;
12441;SDS011;6285;48.804;9.220;2022-10-30T07:05:21;14.70;;;6.38;;
12441;SDS011;6285;48.804;9.220;2022-10-30T07:07:48;14.50;;;6.53;;
12441;SDS011;6285;48.804;9.220;2022-10-30T07:10:15;12.00;;;6.43;;
12441;SDS011;6285;48.804;9.220;2022-10-30T07:12:50;13.27;;;6.15;;
12441;SDS011;6285;48.804;9.220;2022-10-30T07:15:17;12.70;;;5.90;;
12441;SDS011;6285;48.804;9.220;2022-10-30T07:17:50;14.55;;;6.18;;
12441;SDS011;6285;48.804;9.220;2022-10-30T07:20:17;11.63;;;5.68;;
12441;SDS011;6285;48.804;9.220;2022-10-30T07:22:44;12.75;;;5.65;;
12441;SDS011;6285;48.804;9.220;2022-10-30T07:25:11;12.48;;;6.15;;
12441;SDS011;6285;48.804;9.220;2022-10-30T07:27:42;16.55;;;6.97;;
12441;SDS011;6285;48.804;9.220;2022-10-30T07:30:11;12.65;;;6.05;;
12441;SDS011;6285;48.804;9.220;2022-10-30T07:32:38;13.75;;;6.47;;
12441;SDS011;6285;48.804;9.220;2022-10-30T07:35:06;15.77;;;6.10;;
12441;SDS011;6285;48.804;9.220;2022-10-30T07:37:35;13.50;;;5.95;;
12441;SDS011;6285;48.804;9.220;2022-10-30T07:40:02;13.95;;;6.00;;
12441;SDS011;6285;48.804;9.220;2022-10-30T07:42:29;12.55;;;5.85;;
12441;SDS011;6285;48.804;9.220;2022-10-30T07:44:56;12.48;;;6.20;;
12441;SDS011;6285;48.804;9.220;2022-10-30T07:47:24;17.48;;;6.10;;
12441;SDS011;6285;48.804;9.220;2022-10-30T07:49:51;10.45;;;5.75;;
12441;SDS011;6285;48.804;9.220;2022-10-30T07:52:18;9.45;;;5.40;;
12441;SDS011;6285;48.804;9.220;2022-10-30T07:54:46;13.60;;;5.28;;
12441;SDS011;6285;48.804;9.220;2022-10-30T07:57:13;12.00;;;5.13;;
12441;SDS011;6285;48.804;9.220;2022-10-30T07:59:40;12.25;;;5.32;;
12441;SDS011;6285;48.804;9.220;2022-10-30T08:02:07;8.73;;;4.72;;
12441;SDS011;6285;48.804;9.220;2022-10-30T08:04:37;12.85;;;5.00;;
12441;SDS011;6285;48.804;9.220;2022-10-30T08:07:04;10.55;;;5.78;;
12441;SDS011;6285;48.804;9.220;2022-10-30T08:09:31;10.85;;;5.07;;
12441;SDS011;6285;48.804;9.220;2022-10-30T08:11:58;12.75;;;5.30;;
12441;SDS011;6285;48.804;9.220;2022-10-30T08:14:25;12.15;;;5.18;;
12441;SDS011;6285;48.804;9.220;2022-10-30T08:16:52;13.43;;;4.78;;
12441;SDS011;6285;48.804;9.220;2022-10-30T08:19:19;11.70;;;5.05;;
12441;SDS011;6285;48.804;9.220;2022-10-30T08:21:47;12.75;;;5.00;;
12441;SDS011;6285;48.804;9.220;2022-10-30T08:24:15;11.50;;;4.68;;
12441;SDS011;6285;48.804;9.220;2022-10-30T08:26:42;10.85;;;5.28;;
12441;SDS011;6285;48.804;9.220;2022-10-30T08:29:09;12.32;;;4.88;;
12441;SDS011;6285;48.804;9.220;2022-10-30T08:31:36;10.52;;;4.53;;
12441;SDS011;6285;48.804;9.220;2022-10-30T08:34:03;12.18;;;5.18;;
12441;SDS011;6285;48.804;9.220;2022-10-30T08:36:30;12.73;;;4.60;;
12441;SDS011;6285;48.804;9.220;2022-10-30T08:38:59;11.68;;;4.78;;
12441;SDS011;6285;48.804;9.220;2022-10-30T08:41:28;10.88;;;4.70;;
12441;SDS011;6285;48.804;9.220;2022-10-30T08:43:55;10.80;;;4.63;;
12441;SDS011;6285;48.804;9.220;2022-10-30T08:46:22;10.30;;;4.82;;
12441;SDS011;6285;48.804;9.220;2022-10-30T08:48:49;11.38;;;4.88;;
12441;SDS011;6285;48.804;9.220;2022-10-30T08:51:16;11.63;;;4.97;;
12441;SDS011;6285;48.804;9.220;2022-10-30T08:53:43;9.60;;;4.85;;
12441;SDS011;6285;48.804;9.220;2022-10-30T08:56:11;10.43;;;4.80;;
12441;SDS011;6285;48.804;9.220;2022-10-30T08:58:38;10.23;;;4.70;;
12441;SDS011;6285;48.804;9.220;2022-10-30T09:01:07;10.65;;;4.82;;
12441;SDS011;6285;48.804;9.220;2022-10-30T09:03:34;11.98;;;5.07;;
12441;SDS011;6285;48.804;9.220;2022-10-30T09:06:03;11.20;;;4.95;;
12441;SDS011;6285;48.804;9.220;2022-10-30T09:08:30;11.95;;;5.13;;
12441;SDS011;6285;48.804;9.220;2022-10-30T09:10:57;12.48;;;4.40;;
12441;SDS011;6285;48.804;9.220;2022-10-30T09:13:25;10.10;;;4.38;;
12441;SDS011;6285;48.804;9.220;2022-10-30T09:15:53;7.72;;;4.78;;
12441;SDS011;6285;48.804;9.220;2022-10-30T09:18:20;12.20;;;4.72;;
12441;SDS011;6285;48.804;9.220;2022-10-30T09:20:47;9.55;;;4.60;;
12441;SDS011;6285;48.804;9.220;2022-10-30T09:23:14;9.93;;;4.30;;
12441;SDS011;6285;48.804;9.220;2022-10-30T09:25:41;12.98;;;4.40;;
12441;SDS011;6285;48.804;9.220;2022-10-30T09:28:08;10.82;;;4.20;;
12441;SDS011;6285;48.804;9.220;2022-10-30T09:30:37;15.63;;;4.80;;
12441;SDS011;6285;48.804;9.220;2022-10-30T09:33:04;12.57;;;4.43;;
12441;SDS011;6285;48.804;9.220;2022-10-30T09:35:31;9.68;;;4.20;;
12441;SDS011;6285;48.804;9.220;2022-10-30T09:37:58;8.43;;;4.65;;
12441;SDS011;6285;48.804;9.220;2022-10-30T09:40:26;12.90;;;4.50;;
12441;SDS011;6285;48.804;9.220;2022-10-30T09:42:57;14.23;;;4.97;;
12441;SDS011;6285;48.804;9.220;2022-10-30T09:45:40;10.25;;;4.78;;
12441;SDS011;6285;48.804;9.220;2022-10-30T09:48:25;14.38;;;4.80;;
12441;SDS011;6285;48.804;9.220;2022-10-30T09:50:57;10.82;;;3.95;;
12441;SDS011;6285;48.804;9.220;2022-10-30T09:53:37;7.75;;;4.47;;
12441;SDS011;6285;48.804;9.220;2022-10-30T09:56:07;11.93;;;4.20;;
12441;SDS011;6285;48.804;9.220;2022-10-30T09:58:43;13.05;;;4.43;;
12441;SDS011;6285;48.804;9.220;2022-10-30T10:01:18;11.20;;;4.30;;
12441;SDS011;6285;48.804;9.220;2022-10-30T10:03:51;11.88;;;4.80;;
12441;SDS011;6285;48.804;9.220;2022-10-30T10:06:24;11.82;;;4.50;;
12441;SDS011;6285;48.804;9.220;2022-10-30T10:08:52;9.88;;;4.88;;
12441;SDS011;6285;48.804;9.220;2022-10-30T10:11:22;10.15;;;4.38;;
12441;SDS011;6285;48.804;9.220;2022-10-30T10:13:52;10.63;;;4.40;;
12441;SDS011;6285;48.804;9.220;2022-10-30T10:16:24;9.63;;;4.20;;
12441;SDS011;6285;48.804;9.220;2022-10-30T10:18:55;11.30;;;4.50;;
12441;SDS011;6285;48.804;9.220;2022-10-30T10:21:26;13.25;;;4.68;;
12441;SDS011;6285;48.804;9.220;2022-10-30T10:23:54;10.82;;;4.28;;
12441;SDS011;6285;48.804;9.220;2022-10-30T10:26:29;10.95;;;4.63;;
12441;SDS011;6285;48.804;9.220;2022-10-30T10:29:00;11.65;;;4.70;;
12441;SDS011;6285;48.804;9.220;2022-10-30T10:31:35;12.25;;;4.50;;
12441;SDS011;6285;48.804;9.220;2022-10-30T10:34:13;12.10;;;4.60;;
12441;SDS011;6285;48.804;9.220;2022-10-30T10:36:53;8.88;;;4.30;;
12441;SDS011;6285;48.804;9.220;2022-10-30T10:39:26;12.30;;;4.47;;
12441;SDS011;6285;48.804;9.220;2022-10-30T10:41:57;10.98;;;4.40;;
12441;SDS011;6285;48.804;9.220;2022-10-30T10:44:31;11.65;;;4.70;;
12441;SDS011;6285;48.804;9.220;2022-10-30T10:47:06;10.02;;;4.10;;
12441;SDS011;6285;48.804;9.220;2022-10-30T10:49:47;8.65;;;3.80;;
12441;SDS011;6285;48.804;9.220;2022-10-30T10:52:22;8.27;;;4.43;;
12441;SDS011;6285;48.804;9.220;2022-10-30T10:54:54;11.23;;;4.38;;
12441;SDS011;6285;48.804;9.220;2022-10-30T10:57:25;8.30;;;4.10;;
12441;SDS011;6285;48.804;9.220;2022-10-30T10:59:53;8.82;;;4.13;;
12441;SDS011;6285;48.804;9.220;2022-10-30T11:02:28;7.75;;;4.03;;
12441;SDS011;6285;48.804;9.220;2022-10-30T11:05:03;8.85;;;4.53;;
12441;SDS011;6285;48.804;9.220;2022-10-30T11:07:32;11.05;;;4.00;;
12441;SDS011;6285;48.804;9.220;2022-10-30T11:09:59;9.00;;;3.92;;
12441;SDS011;6285;48.804;9.220;2022-10-30T11:12:27;9.50;;;4.72;;
12441;SDS011;6285;48.804;9.220;2022-10-30T11:14:57;10.32;;;4.38;;
12441;SDS011;6285;48.804;9.220;2022-10-30T11:17:25;12.68;;;3.97;;
12441;SDS011;6285;48.804;9.220;2022-10-30T11:19:57;10.45;;;4.13;;
12441;SDS011;6285;48.804;9.220;2022-10-30T11:22:27;10.45;;;3.90;;
12441;SDS011;6285;48.804;9.220;2022-10-30T11:24:56;9.73;;;4.47;;
12441;SDS011;6285;48.804;9.220;2022-10-30T11:27:46;11.35;;;4.43;;
12441;SDS011;6285;48.804;9.220;2022-10-30T11:30:17;10.38;;;3.92;;
12441;SDS011;6285;48.804;9.220;2022-10-30T11:32:45;11.25;;;4.38;;
12441;SDS011;6285;48.804;9.220;2022-10-30T11:35:14;6.85;;;3.95;;
12441;SDS011;6285;48.804;9.220;2022-10-30T11:37:42;6.82;;;3.33;;
12441;SDS011;6285;48.804;9.220;2022-10-30T11:40:15;11.30;;;3.92;;
12441;SDS011;6285;48.804;9.220;2022-10-30T11:42:44;9.40;;;4.68;;
12441;SDS011;6285;48.804;9.220;2022-10-30T11:45:14;7.53;;;3.45;;
12441;SDS011;6285;48.804;9.220;2022-10-30T11:47:41;7.85;;;3.63;;
12441;SDS011;6285;48.804;9.220;2022-10-30T11:50:15;9.35;;;3.85;;
12441;SDS011;6285;48.804;9.220;2022-10-30T11:52:44;9.07;;;3.97;;
12441;SDS011;6285;48.804;9.220;2022-10-30T11:55:13;6.97;;;3.63;;
12441;SDS011;6285;48.804;9.220;2022-10-30T11:57:42;8.80;;;3.88;;
12441;SDS011;6285;48.804;9.220;2022-10-30T12:00:13;9.45;;;4.13;;
12441;SDS011;6285;48.804;9.220;2022-10-30T12:02:42;9.40;;;3.83;;
12441;SDS011;6285;48.804;9.220;2022-10-30T12:05:30;10.10;;;3.90;;
12441;SDS011;6285;48.804;9.220;2022-10-30T12:08:11;8.65;;;3.85;;
12441;SDS011;6285;48.804;9.220;2022-10-30T12:10:43;7.72;;;4.05;;
12441;SDS011;6285;48.804;9.220;2022-10-30T12:13:11;6.93;;;3.30;;
12441;SDS011;6285;48.804;9.220;2022-10-30T12:15:40;7.57;;;3.95;;
12441;SDS011;6285;48.804;9.220;2022-10-30T12:18:07;10.93;;;3.80;;
12441;SDS011;6285;48.804;9.220;2022-10-30T12:20:44;11.48;;;3.80;;
12441;SDS011;6285;48.804;9.220;2022-10-30T12:23:15;9.07;;;4.13;;
12441;SDS011;6285;48.804;9.220;2022-10-30T12:25:45;12.63;;;4.00;;
12441;SDS011;6285;48.804;9.220;2022-10-30T12:28:12;9.57;;;4.45;;
12441;SDS011;6285;48.804;9.220;2022-10-30T12:30:42;6.05;;;3.92;;
12441;SDS011;6285;48.804;9.220;2022-10-30T12:33:11;8.73;;;4.25;;
12441;SDS011;6285;48.804;9.220;2022-10-30T12:35:41;9.50;;;4.18;;
12441;SDS011;6285;48.804;9.220;2022-10-30T12:38:12;10.90;;;4.35;;
12441;SDS011;6285;48.804;9.220;2022-10-30T12:40:42;8.85;;;4.30;;
12441;SDS011;6285;48.804;9.220;2022-10-30T12:43:14;8.35;;;3.80;;
12441;SDS011;6285;48.804;9.220;2022-10-30T12:45:45;6.60;;;3.63;;
12441;SDS011;6285;48.804;9.220;2022-10-30T12:48:16;6.80;;;3.95;;
12441;SDS011;6285;48.804;9.220;2022-10-30T12:50:49;11.60;;;4.00;;
12441;SDS011;6285;48.804;9.220;2022-10-30T12:53:23;11.57;;;3.95;;
12441;SDS011;6285;48.804;9.220;2022-10-30T12:55:54;8.10;;;4.13;;
12441;SDS011;6285;48.804;9.220;2022-10-30T12:58:23;8.65;;;4.00;;
12441;SDS011;6285;48.804;9.220;2022-10-30T13:00:53;8.25;;;3.80;;
12441;SDS011;6285;48.804;9.220;2022-10-30T13:03:23;8.18;;;3.95;;
12441;SDS011;6285;48.804;9.220;2022-10-30T13:05:53;9.05;;;4.13;;
12441;SDS011;6285;48.804;9.220;2022-10-30T13:08:24;7.80;;;4.25;;
12441;SDS011;6285;48.804;9.220;2022-10-30T13:10:54;11.32;;;5.00;;
12441;SDS011;6285;48.804;9.220;2022-10-30T13:13:26;12.20;;;4.63;;
12441;SDS011;6285;48.804;9.220;2022-10-30T13:15:57;9.63;;;4.97;;
12441;SDS011;6285;48.804;9.220;2022-10-30T13:18:26;12.75;;;4.55;;
12441;SDS011;6285;48.804;9.220;2022-10-30T13:23:46;10.00;;;4.70;;
12441;SDS011;6285;48.804;9.220;2022-10-30T13:26:19;9.93;;;4.82;;
12441;SDS011;6285;48.804;9.220;2022-10-30T13:28:50;11.32;;;4.28;;
12441;SDS011;6285;48.804;9.220;2022-10-30T13:31:25;10.32;;;4.25;;
12441;SDS011;6285;48.804;9.220;2022-10-30T13:33:58;10.52;;;4.00;;
12441;SDS011;6285;48.804;9.220;2022-10-30T13:36:28;13.68;;;4.60;;
12441;SDS011;6285;48.804;9.220;2022-10-30T13:39:06;7.95;;;4.65;;
12441;SDS011;6285;48.804;9.220;2022-10-30T13:41:48;10.15;;;5.03;;
12441;SDS011;6285;48.804;9.220;2022-10-30T13:44:21;17.20;;;4.65;;
12441;SDS011;6285;48.804;9.220;2022-10-30T13:46:57;9.75;;;4.30;;
12441;SDS011;6285;48.804;9.220;2022-10-30T13:49:31;12.75;;;4.57;;
12441;SDS011;6285;48.804;9.220;2022-10-30T13:52:01;12.77;;;5.13;;
12441;SDS011;6285;48.804;9.220;2022-10-30T13:54:32;10.98;;;5.00;;
12441;SDS011;6285;48.804;9.220;2022-10-30T13:57:03;12.68;;;4.75;;
12441;SDS011;6285;48.804;9.220;2022-10-30T13:59:41;9.15;;;4.38;;
12441;SDS011;6285;48.804;9.220;2022-10-30T14:02:13;10.20;;;4.85;;
12441;SDS011;6285;48.804;9.220;2022-10-30T14:04:44;14.57;;;5.00;;
12441;SDS011;6285;48.804;9.220;2022-10-30T14:07:20;15.02;;;9.93;;
12441;SDS011;6285;48.804;9.220;2022-10-30T14:09:53;10.98;;;5.30;;
12441;SDS011;6285;48.804;9.220;2022-10-30T14:12:42;8.60;;;5.32;;
12441;SDS011;6285;48.804;9.220;2022-10-30T14:15:14;16.83;;;6.38;;
12441;SDS011;6285;48.804;9.220;2022-10-30T14:20:24;13.45;;;6.63;;
12441;SDS011;6285;48.804;9.220;2022-10-30T14:23:05;9.52;;;5.40;;
12441;SDS011;6285;48.804;9.220;2022-10-30T14:25:34;14.18;;;7.18;;
12441;SDS011;6285;48.804;9.220;2022-10-30T14:28:01;14.98;;;6.50;;
12441;SDS011;6285;48.804;9.220;2022-10-30T14:30:28;15.85;;;7.53;;
12441;SDS011;6285;48.804;9.220;2022-10-30T14:32:55;17.98;;;7.55;;
12441;SDS011;6285;48.804;9.220;2022-10-30T14:35:38;13.98;;;6.28;;
12441;SDS011;6285;48.804;9.220;2022-10-30T14:38:21;12.13;;;5.60;;
12441;SDS011;6285;48.804;9.220;2022-10-30T14:40:59;14.95;;;6.82;;
12441;SDS011;6285;48.804;9.220;2022-10-30T14:43:30;13.35;;;5.85;;
12441;SDS011;6285;48.804;9.220;2022-10-30T14:46:02;12.68;;;6.93;;
12441;SDS011;6285;48.804;9.220;2022-10-30T14:48:43;10.57;;;6.90;;
12441;SDS011;6285;48.804;9.220;2022-10-30T14:51:15;15.93;;;7.35;;
12441;SDS011;6285;48.804;9.220;2022-10-30T14:53:48;12.45;;;7.07;;
12441;SDS011;6285;48.804;9.220;2022-10-30T14:56:29;11.23;;;6.55;;
12441;SDS011;6285;48.804;9.220;2022-10-30T14:59:08;12.20;;;6.32;;
12441;SDS011;6285;48.804;9.220;2022-10-30T15:01:45;13.65;;;7.07;;
12441;SDS011;6285;48.804;9.220;2022-10-30T15:04:18;15.45;;;7.05;;
12441;SDS011;6285;48.804;9.220;2022-10-30T15:07:00;12.75;;;7.88;;